• Join FlightAware (Why Join?)
  • Login
  • US Flag 
12:42AM EST


 

Airport Tracker/Info


-or-


 

Live Flight TrackerFlight Track Log ✈ SWA1969 ✈ 02-May-2013 ✈ KMCI - KMDW

Flight Track Log - Related Links

Times and Time Zones

All times are in EDT time to prevent confusion due to time zone crossing. See the SWA1969 flight status page for this flight to view local times or setup timezone preferences in your user account.

Time Position Orientation Groundspeed Altitude Reporting Facility
EDT Latitude Longitude Course Direction KTS MPH feet Rate Location/Type
11:10AM 39.3167 -94.7167 47° Northeast 135 155 2,400  Level Kansas City TRACON
11:11AM 39.3500 -94.7000 21° North 170 196 3,200 1,860 Climbing Kansas City TRACON
11:12AM 39.4000 -94.6500 38° Northeast 222 255 5,400 2,160 Climbing Kansas City TRACON
11:13AM 39.4500 -94.6000 38° Northeast 284 327 7,600 2,280 Climbing Kansas City TRACON
11:14AM 39.5219 -94.5261 38° Northeast 320 368 10,500 2,520 Climbing Kansas City Center
11:15AM 39.5908 -94.4150 51° Northeast 359 413 13,300 1,680 Climbing Kansas City Center
11:16AM 39.6894 -94.2182 47° Northeast  Level FlightAware Approximate
11:16AM 39.6539 -94.3133 51° Northeast 375 432 14,000  Level Kansas City Center
11:17AM 39.7269 -94.1950 51° Northeast 375 432 14,600 1,080 Climbing Kansas City Center
11:18AM 39.8019 -94.1053 43° Northeast 387 445 16,300 1,500 Climbing Kansas City Center
11:19AM 39.8881 -94.0028 42° Northeast 412 474 17,800 1,620 Climbing Kansas City Center
11:20AM 39.9733 -93.9042 42° Northeast 414 476 19,700 1,980 Climbing Kansas City Center
11:21AM 40.0636 -93.8017 41° Northeast 425 489 21,900 2,160 Climbing Kansas City Center
11:22AM 40.1069 -93.6267 72° East 432 497 24,200 1,920 Climbing Kansas City Center
11:23AM 40.1342 -93.4700 77° East 441 507 25,900 1,320 Climbing Kansas City Center
11:24AM 40.1608 -93.3097 78° East 452 520 27,000 480 Climbing Kansas City Center
11:25AM 40.1878 -93.1481 78° East 457 526 27,000  Level Kansas City Center
11:26AM 40.2175 -92.9683 78° East 453 521 27,000  Level Kansas City Center
11:27AM 40.2411 -92.8167 78° East 446 513 27,000  Level Kansas City Center
11:28AM 40.2678 -92.6469 78° East 431 496 27,000  Level Kansas City Center
11:29AM 40.2906 -92.4983 79° East 431 496 27,000  Level Kansas City Center
11:30AM 40.3189 -92.3231 78° East 439 505 27,000  Level Kansas City Center
11:31AM 40.3422 -92.1675 79° East 440 506 27,000  Level Kansas City Center
11:32AM 40.3653 -92.0131 79° East 437 503 27,000  Level Kansas City Center
11:33AM 40.3889 -91.8583 79° East 437 503 27,000  Level Kansas City Center
11:34AM 40.4122 -91.7039 79° East 435 501 27,000  Level Kansas City Center
11:35AM 40.4344 -91.5500 79° East 434 499 27,000  Level Chicago Center
11:36AM 40.4569 -91.3961 79° East 433 498 27,000  Level Chicago Center
11:37AM 40.4794 -91.2617 78° East 434 499 27,000  Level Chicago Center
11:38AM 40.5217 -91.0792 73° East 434 499 27,000  Level Chicago Center
11:39AM 40.5558 -90.9256 74° East 438 504 27,000  Level Chicago Center
11:40AM 40.5883 -90.7725 74° East 436 502 27,000  Level Chicago Center
11:41AM 40.6197 -90.6203 75° East 432 497 27,000  Level Chicago Center
11:42AM 40.6511 -90.4692 75° East 429 494 27,000 -300 Level Chicago Center
11:43AM 40.6833 -90.3175 74° East 430 495 26,500 -780 Descending Chicago Center
11:45AM 40.7186 -90.1475 75° East 427 491 25,400 -1,020 Descending Chicago Center
11:46AM 40.7503 -89.9956 75° East 432 497 24,500 -1,020 Descending Chicago Center
11:47AM 40.7808 -89.8447 75° East 428 493 23,400 -1,380 Descending Chicago Center
11:48AM 40.8328 -89.6914 66° East 387 445 21,700 -1,800 Descending Chicago Center
11:49AM 40.8933 -89.5775 55° Northeast 382 440 19,800 -1,800 Descending Chicago Center
11:50AM 40.9536 -89.4689 54° Northeast 379 436 18,000 -1,500 Descending Chicago Center
11:51AM 41.0167 -89.3586 53° Northeast 377 434 16,800 -1,020 Descending Chicago Center
11:52AM 41.0542 -89.2369 68° East 365 420 15,900 -1,020 Descending Chicago Center
11:53AM 41.0806 -89.1211 73° East 335 386 14,800 -1,320 Descending Chicago Center
11:54AM 41.1186 -88.9911 69° East 322 371 13,200 -1,380 Descending Chicago Center
11:55AM 41.1397 -88.8844 75° East 309 356 12,000 -1,200 Descending Chicago Center
11:56AM 41.1633 -88.7775 74° East 303 349 10,700 -1,080 Descending Chicago Center
11:57AM 41.2086 -88.6900 55° Northeast 295 339 9,800 -1,080 Descending Chicago Center
11:58AM 41.2742 -88.6206 39° Northeast 298 343 8,500 -1,320 Descending Chicago Center
11:59AM 41.3369 -88.5500 40° Northeast 297 342 7,100 -1,260 Descending Chicago Center
12:00PM 41.3878 -88.4478 56° Northeast 279 321 6,000 -540 Descending Chicago Center
12:01PM 41.4192 -88.3550 66° East 276 318 6,000 -660 Level Chicago Center
12:02PM 41.4503 -88.2614 66° East 276 318 4,700 -1,020 Descending Chicago Center
12:03PM 41.4967 -88.1817 52° Northeast 271 312 4,000 -360 Descending Chicago Center
12:04PM 41.5436 -88.1017 52° Northeast 271 312 4,000  Level Chicago Center
12:05PM 41.5847 -88.0325 52° Northeast 251 289 4,000  Level Chicago Center
12:06PM 41.6242 -87.9672 51° Northeast 235 270 4,000 -180 Level Chicago Center
12:07PM 41.6703 -87.8947 50° Northeast 222 255 3,700 -840 Descending Chicago Center
12:08PM 41.7167 -87.8333 45° Northeast 196 226 2,200 -1,080 Descending Chicago TRACON
12:09PM 41.7500 -87.7833 48° Northeast 135 155 1,400 -840 Descending Chicago TRACON
12:12PM 41.7833 -87.7500 North  Level FlightAware Approximate